Hovedside
METAR-TAF:

METAR-TAF

Lufthavner :

Oslo lufthavn (Gardermoen)

Oslo, Norge

breddegrad: 60-12N, lengdegrad: 011-05E, høyde over havet: 208 m

Gjeldene værobservasjon

Denne rapporten ble laget for 29 minutter siden, klokken 17:20 UTC
Vind 7 kt fra Sørvest, skiftende mellom Sør og Vest-sørvest
Temperatur 20°C
Luftfuktighet 37%
Trykk 1011 hPa
Sikt 10 km eller mer
ingen skyer under 1500 m og ingen bygeskyer

METAR: ENGM 231720Z 22007KT 190V250 CAVOK 20/05 Q1011 NOSIG

Tid: 19:49 (17:49 UTC)

Varsel

Varsel gyldig fra 23. klokken 12 UTC til 24. klokken 12 UTC
Vind 5 kt fra skiftende retning
Sikt 10 km eller mer
ingen skyer under 1500 m og ingen bygeskyer
Blir
fra 23. klokken 22 UTC til 23. klokken 24 UTC
Vind 10 kt fra Nord-nordøst

TAF: ENGM 2312/2412 VRB05KT CAVOK BECMG 2322/2324 02010KT

Værobservasjoner og værvarsel for over 4000 flyplasser (METAR- og TAF-rapporter).

Tilgjengelige stasjoner er representert av de røde og gule prikkene på kartet.

Hold musepekeren over prikken for å se navnet på stasjonen.

Klikk så for å se værobservasjoner og -varsler.

For å forandre kartet kan du klikke på den grønne knappen med svart kryss for å zoome inn, på den grønne knappen med strek for å zoome ut, eller på de grønne pilene for å se tilstøtende kart.


METAR-TAF: